Time;durP1;ratioP1;P1;durP2;ratioP2;P2;SDS_P1;SDS_P2;PMS_P1;PMS_P2;Temp;Humidity;BMP_temperature;BMP_pressure;BME280_temperature;BME280_humidity;BME280_pressure;Samples;Min_cycle;Max_cycle;Signal;HPM_P1;HPM_P2
2021/12/15 00:01:36;;;;;;;;;60.00;42.00;;;;;10.10;68.28;102668.16;4945103;28;45437;-51
2021/12/15 00:04:03;;;;;;;;;55.75;39.50;;;;;10.07;68.54;102658.50;4962640;28;45243;-48
2021/12/15 00:06:28;;;;;;;;;54.25;41.50;;;;;10.09;68.11;102667.25;4962286;28;45197;-50
2021/12/15 00:09:03;;;;;;;;;57.50;47.00;;;;;10.09;68.25;102661.13;4944649;28;46143;-48
2021/12/15 00:11:35;;;;;;;;;54.75;43.00;;;;;10.08;68.40;102647.09;4949292;28;45404;-47
2021/12/15 00:14:03;;;;;;;;;48.00;39.00;;;;;10.07;68.42;102647.06;4958745;28;45457;-47
2021/12/15 00:16:28;;;;;;;;;40.75;36.50;;;;;10.07;68.26;102647.06;4962398;28;45452;-47
2021/12/15 00:18:54;;;;;;;;;49.75;39.50;;;;;10.04;68.22;102644.41;4959513;28;45456;-47
2021/12/15 00:21:20;;;;;;;;;48.50;38.00;;;;;10.06;68.36;102647.94;4962345;28;45326;-46
2021/12/15 00:23:48;;;;;;;;;52.50;38.25;;;;;10.05;68.18;102644.44;4960858;28;45347;-47
2021/12/15 00:26:16;;;;;;;;;46.25;38.75;;;;;10.06;68.44;102645.31;4962153;28;45469;-47
2021/12/15 00:28:43;;;;;;;;;54.25;38.50;;;;;10.01;68.33;102637.34;4962001;28;46067;-46
2021/12/15 00:31:10;;;;;;;;;44.00;35.75;;;;;10.03;68.17;102643.50;4962049;28;45377;-48
2021/12/15 00:33:37;;;;;;;;;42.50;35.50;;;;;10.02;68.21;102644.34;4960505;28;45284;-46
2021/12/15 00:36:03;;;;;;;;;51.00;39.00;;;;;10.02;68.42;102643.47;4960808;28;45531;-47
2021/12/15 00:38:29;;;;;;;;;46.50;35.50;;;;;10.00;68.21;102640.84;4961886;28;45467;-51
2021/12/15 00:40:54;;;;;;;;;41.25;36.25;;;;;9.99;68.17;102641.69;4961871;28;45411;-49
2021/12/15 00:43:20;;;;;;;;;44.50;35.75;;;;;9.99;68.33;102638.19;4960684;28;45235;-49
2021/12/15 00:45:46;;;;;;;;;49.00;37.75;;;;;9.97;68.25;102640.75;4960654;28;45470;-49
2021/12/15 00:48:12;;;;;;;;;42.00;35.25;;;;;9.97;68.32;102640.75;4960430;28;47437;-49
2021/12/15 00:50:39;;;;;;;;;51.50;38.25;;;;;9.95;68.25;102631.09;4961807;28;45444;-47
2021/12/15 00:53:05;;;;;;;;;45.50;36.75;;;;;9.93;68.09;102637.19;4961843;28;45223;-51
2021/12/15 00:55:31;;;;;;;;;42.00;36.00;;;;;9.89;68.25;102634.50;4961694;28;45489;-49
2021/12/15 00:57:59;;;;;;;;;40.00;35.00;;;;;9.88;68.16;102648.47;4961560;28;45417;-47
2021/12/15 01:00:33;;;;;;;;;40.50;35.50;;;;;9.85;68.32;102651.03;4961761;28;45346;-50
2021/12/15 01:02:59;;;;;;;;;50.75;38.00;;;;;9.80;68.28;102640.47;4961676;28;45603;-49
2021/12/15 01:05:31;;;;;;;;;43.75;35.00;;;;;9.81;68.21;102639.59;4961601;28;45446;-49
2021/12/15 01:07:58;;;;;;;;;43.00;33.50;;;;;9.82;68.41;102645.72;4958827;28;47605;-49
2021/12/15 01:10:31;;;;;;;;;43.25;35.50;;;;;9.75;68.31;102632.47;4959427;28;45338;-46
2021/12/15 01:21:08;;;;;;;;;37.00;33.00;;;;;9.80;68.15;102644.81;4961466;28;45251;-47
2021/12/15 01:23:34;;;;;;;;;51.50;41.00;;;;;9.79;68.34;102643.06;4960141;28;45463;-47
2021/12/15 01:26:14;;;;;;;;;47.00;37.25;;;;;9.78;68.45;102649.16;4961227;28;45502;-46
2021/12/15 01:28:39;;;;;;;;;48.50;39.00;;;;;9.74;68.37;102635.94;4961332;28;45266;-49
2021/12/15 01:31:06;;;;;;;;;43.00;35.50;;;;;9.78;68.15;102638.66;4961237;28;45335;-49
2021/12/15 01:33:33;;;;;;;;;41.25;35.25;;;;;9.78;68.36;102638.66;4961136;28;45307;-49
2021/12/15 01:35:59;;;;;;;;;43.50;36.50;;;;;9.78;68.26;102638.66;4961316;28;45353;-47
2021/12/15 01:38:30;;;;;;;;;37.50;32.75;;;;;9.74;68.41;102633.31;4961152;28;45912;-49
2021/12/15 01:40:57;;;;;;;;;43.25;37.25;;;;;9.76;68.22;102647.38;4961077;28;45518;-50
2021/12/15 01:43:39;;;;;;;;;47.25;39.00;;;;;9.75;68.20;102637.72;4961211;28;45480;-47
2021/12/15 01:49:04;;;;;;;;;48.50;37.75;;;;;9.79;68.30;102640.44;4960772;28;45429;-49
2021/12/15 01:51:29;;;;;;;;;51.00;41.00;;;;;9.78;68.29;102639.53;4959831;28;45433;-47
2021/12/15 01:53:55;;;;;;;;;43.50;36.75;;;;;9.77;68.37;102643.00;4960753;28;45503;-51
2021/12/15 01:56:21;;;;;;;;;44.25;35.25;;;;;9.77;68.38;102653.50;4959519;28;45460;-50
2021/12/15 01:58:47;;;;;;;;;47.75;35.25;;;;;9.75;68.45;102648.22;4960604;28;45447;-48
2021/12/15 02:01:12;;;;;;;;;49.25;36.75;;;;;9.79;68.32;102645.69;4943560;28;45368;-48
2021/12/15 02:03:39;;;;;;;;;47.75;36.25;;;;;9.79;68.39;102651.81;4960742;28;45324;-50
2021/12/15 02:06:07;;;;;;;;;47.25;38.25;;;;;9.77;68.41;102648.25;4960790;28;45568;-56
2021/12/15 02:08:33;;;;;;;;;48.25;38.00;;;;;9.80;68.23;102658.84;4960630;28;45690;-47
2021/12/15 02:10:59;;;;;;;;;46.00;35.50;;;;;9.82;68.15;102661.47;4960633;28;45449;-47
2021/12/15 02:13:24;;;;;;;;;49.25;37.00;;;;;9.80;68.42;102661.47;4960470;28;45291;-46
2021/12/15 02:15:55;;;;;;;;;45.75;35.50;;;;;9.82;68.46;102659.72;4943347;28;45376;-48
2021/12/15 02:18:26;;;;;;;;;41.00;35.00;;;;;9.80;68.28;102652.69;4943700;28;46189;-45
2021/12/15 02:20:56;;;;;;;;;45.00;33.00;;;;;9.85;68.42;102665.06;4960524;28;45344;-46
2021/12/15 02:23:30;;;;;;;;;47.75;38.50;;;;;9.85;68.42;102666.78;4964022;28;45236;-50
2021/12/15 02:25:56;;;;;;;;;46.25;36.00;;;;;9.85;68.42;102662.44;4964154;28;45299;-50
2021/12/15 02:28:22;;;;;;;;;43.75;36.75;;;;;9.85;68.42;102666.78;4946533;28;46059;-49
2021/12/15 02:31:07;;;;;;;;;44.75;37.50;;;;;9.85;68.31;102672.94;4964018;28;45248;-49
2021/12/15 02:38:46;;;;;;;;;44.50;35.50;;;;;9.86;68.49;102663.31;4963762;28;45567;-48
2021/12/15 02:41:23;;;;;;;;;50.00;38.50;;;;;9.86;68.24;102673.81;4963787;28;45430;-50
2021/12/15 02:44:05;;;;;;;;;46.00;38.75;;;;;9.84;68.46;102665.03;4963802;28;45416;-48
2021/12/15 02:46:33;;;;;;;;;46.75;36.00;;;;;9.83;68.48;102664.13;4963942;28;45359;-46
2021/12/15 02:48:59;;;;;;;;;43.00;35.50;;;;;9.86;68.27;102668.56;4963362;28;45326;-50
2021/12/15 02:51:27;;;;;;;;;48.25;39.25;;;;;9.86;68.43;102665.94;4946397;28;45485;-46
2021/12/15 02:53:53;;;;;;;;;40.50;35.00;;;;;9.87;68.33;102665.09;4946014;28;45264;-47
2021/12/15 02:56:19;;;;;;;;;49.50;38.00;;;;;9.87;68.50;102663.34;4963712;28;45165;-48
2021/12/15 02:58:56;;;;;;;;;44.75;35.75;;;;;9.88;68.20;102664.22;4963525;28;46308;-49
2021/12/15 03:01:53;;;;;;;;;36.00;33.25;;;;;9.88;68.29;102672.13;4963495;28;45326;-46
2021/12/15 03:07:15;;;;;;;;;45.00;38.00;;;;;9.89;68.37;102666.88;4963264;28;45262;-48
2021/12/15 03:15:29;;;;;;;;;48.00;38.00;;;;;9.93;68.22;102659.94;4963423;28;45204;-48
2021/12/15 03:18:03;;;;;;;;;42.25;36.75;;;;;9.93;68.50;102662.56;4963369;28;45714;-48
2021/12/15 03:20:46;;;;;;;;;38.75;33.75;;;;;9.95;68.36;102666.13;4962836;28;45282;-49
2021/12/15 03:23:14;;;;;;;;;46.25;36.00;;;;;9.94;68.21;102664.34;4963033;28;45344;-49
2021/12/15 03:25:40;;;;;;;;;49.50;38.25;;;;;9.94;68.28;102664.34;4963239;28;45302;-46
2021/12/15 03:33:42;;;;;;;;;46.25;36.25;;;;;9.95;68.24;102665.22;4962373;28;45253;-48
2021/12/15 03:36:14;;;;;;;;;40.25;33.00;;;;;9.96;68.28;102664.38;4963012;28;45316;-50
2021/12/15 03:38:42;;;;;;;;;49.50;39.00;;;;;9.96;68.28;102665.28;4963048;28;45378;-46
2021/12/15 03:41:10;;;;;;;;;39.25;35.75;;;;;9.96;68.14;102670.53;4962782;28;45318;-45
2021/12/15 03:43:36;;;;;;;;;44.25;37.00;;;;;9.96;68.33;102660.03;4963080;28;45428;-49
2021/12/15 03:46:11;;;;;;;;;37.25;33.50;;;;;9.97;68.42;102668.78;4962882;28;45571;-49
2021/12/15 03:48:40;;;;;;;;;43.25;36.75;;;;;9.96;68.51;102675.78;4962718;28;45345;-50
2021/12/15 03:51:06;;;;;;;;;47.25;36.25;;;;;9.95;68.29;102671.38;4961539;28;45323;-46
2021/12/15 03:53:31;;;;;;;;;41.00;35.25;;;;;9.97;68.45;102672.28;4962749;28;45321;-48
2021/12/15 03:55:57;;;;;;;;;42.25;35.25;;;;;9.96;68.46;102667.91;4961314;28;45265;-46
2021/12/15 03:58:24;;;;;;;;;46.50;35.75;;;;;9.95;68.36;102667.84;4962779;28;45331;-47
2021/12/15 04:00:59;;;;;;;;;45.25;36.50;;;;;9.98;68.27;102674.06;4962377;28;46874;-47
2021/12/15 04:03:28;;;;;;;;;46.25;38.00;;;;;9.98;68.50;102670.56;4962307;28;45297;-49
2021/12/15 04:05:57;;;;;;;;;43.00;35.50;;;;;9.98;68.45;102673.19;4962451;28;45263;-48
2021/12/15 04:08:24;;;;;;;;;43.50;34.00;;;;;9.97;68.24;102663.53;4961312;28;45347;-49
2021/12/15 04:10:50;;;;;;;;;42.75;36.50;;;;;9.97;68.68;102674.91;4948156;28;45403;-49
2021/12/15 04:13:17;;;;;;;;;46.25;35.50;;;;;9.99;68.26;102672.34;4942773;28;45232;-49
2021/12/15 04:15:46;;;;;;;;;45.75;36.50;;;;;9.97;68.28;102674.91;4925712;28;45298;-46
2021/12/15 04:18:13;;;;;;;;;50.50;36.75;;;;;9.99;68.48;102674.97;4942863;28;45478;-48
2021/12/15 04:20:39;;;;;;;;;44.25;34.00;;;;;9.99;68.37;102674.97;4925161;28;46859;-49
2021/12/15 04:23:08;;;;;;;;;44.25;33.75;;;;;9.97;68.20;102667.03;4925518;28;45366;-50
2021/12/15 04:25:36;;;;;;;;;30.00;26.50;;;;;9.98;68.16;102666.19;4925575;28;45325;-51
2021/12/15 04:28:23;;;;;;;;;40.25;35.50;;;;;9.99;68.29;102667.06;4925406;28;45575;-49
2021/12/15 04:30:52;;;;;;;;;41.25;34.75;;;;;9.99;68.40;102667.06;4942818;28;45451;-48
2021/12/15 04:33:27;;;;;;;;;40.75;35.25;;;;;9.99;68.42;102659.19;4942549;28;45257;-50
2021/12/15 04:35:55;;;;;;;;;32.25;29.75;;;;;9.98;68.34;102666.19;4942902;28;45300;-48
2021/12/15 04:38:23;;;;;;;;;41.50;33.00;;;;;9.97;68.28;102661.78;4942608;28;45428;-49
2021/12/15 04:40:49;;;;;;;;;42.75;36.25;;;;;9.95;68.47;102665.22;4942525;28;45344;-50
2021/12/15 04:43:14;;;;;;;;;42.50;35.00;;;;;9.96;68.30;102667.00;4942296;28;45373;-50
2021/12/15 04:45:40;;;;;;;;;48.50;37.00;;;;;9.93;68.29;102660.81;4942265;28;45309;-50
2021/12/15 04:48:08;;;;;;;;;39.25;35.00;;;;;9.92;68.43;102669.59;4942724;28;45278;-48
2021/12/15 04:50:34;;;;;;;;;45.00;35.00;;;;;9.92;68.30;102674.84;4942261;28;45273;-49
2021/12/15 04:53:03;;;;;;;;;41.50;35.00;;;;;9.91;68.42;102669.53;4942561;28;45288;-48
2021/12/15 04:55:30;;;;;;;;;41.25;33.25;;;;;9.90;68.45;102675.66;4942453;28;45320;-49
2021/12/15 04:57:57;;;;;;;;;44.00;33.75;;;;;9.90;68.46;102678.28;4942649;28;45317;-50
2021/12/15 05:00:28;;;;;;;;;37.50;33.25;;;;;9.81;68.18;102658.00;4942313;28;45351;-47
2021/12/15 05:02:53;;;;;;;;;38.00;34.25;;;;;9.89;68.34;102679.13;4925138;28;45370;-47
2021/12/15 05:05:21;;;;;;;;;41.75;35.25;;;;;9.89;68.37;102676.50;4942072;28;45371;-49
2021/12/15 05:07:49;;;;;;;;;35.00;30.75;;;;;9.88;68.33;102683.50;4942225;28;45209;-49
2021/12/15 05:10:16;;;;;;;;;42.75;37.00;;;;;9.85;68.13;102679.91;4945302;28;46335;-50
2021/12/15 05:12:41;;;;;;;;;36.50;33.00;;;;;9.87;68.20;102692.25;4961452;28;46307;-46
2021/12/15 05:15:07;;;;;;;;;38.25;33.75;;;;;9.89;68.42;102687.03;4961487;28;45272;-49
2021/12/15 05:17:34;;;;;;;;;48.00;38.00;;;;;9.86;68.15;102686.94;4961562;28;45311;-50
2021/12/15 05:20:03;;;;;;;;;39.00;33.00;;;;;9.87;68.33;102696.59;4961044;28;46413;-48
2021/12/15 05:22:30;;;;;;;;;42.00;32.75;;;;;9.85;68.25;102687.78;4961473;28;45254;-49
2021/12/15 05:24:57;;;;;;;;;32.50;29.00;;;;;9.83;68.20;102690.38;4961185;28;45490;-50
2021/12/15 05:27:22;;;;;;;;;38.00;34.00;;;;;9.85;68.40;102687.78;4961268;28;45267;-47
2021/12/15 05:29:48;;;;;;;;;41.50;35.25;;;;;9.85;68.32;102693.03;4960958;28;45303;-47
2021/12/15 05:32:18;;;;;;;;;39.00;32.75;;;;;9.85;68.12;102701.81;4961406;28;45410;-47
2021/12/15 05:34:44;;;;;;;;;39.00;33.25;;;;;9.83;68.25;102697.41;4960841;28;45291;-49
2021/12/15 05:37:10;;;;;;;;;38.75;32.25;;;;;9.85;68.12;102703.53;4943992;28;45286;-50
2021/12/15 05:39:36;;;;;;;;;39.75;33.75;;;;;9.85;68.16;102706.16;4960740;28;46252;-50
2021/12/15 05:42:03;;;;;;;;;38.00;33.00;;;;;9.85;68.28;102708.81;4961072;28;45258;-49
2021/12/15 05:44:28;;;;;;;;;35.00;29.00;;;;;9.87;68.13;102709.72;4943933;28;45335;-50
2021/12/15 05:46:57;;;;;;;;;37.00;33.25;;;;;9.86;68.17;102711.47;4961112;28;45464;-49
2021/12/15 05:49:22;;;;;;;;;40.00;32.75;;;;;9.84;68.37;102713.19;4943504;28;47145;-50
2021/12/15 05:51:48;;;;;;;;;36.00;30.50;;;;;9.85;68.18;102708.81;4943741;28;45218;-50
2021/12/15 05:54:13;;;;;;;;;36.50;32.75;;;;;9.87;68.27;102709.72;4960875;28;45965;-47
2021/12/15 05:56:39;;;;;;;;;36.25;33.00;;;;;9.88;68.30;102714.13;4960987;28;45245;-49
2021/12/15 05:59:05;;;;;;;;;40.75;33.00;;;;;9.86;68.03;102708.84;4960833;28;45175;-50
2021/12/15 06:01:31;;;;;;;;;35.00;32.75;;;;;9.84;68.13;102713.19;4960837;28;45359;-50
2021/12/15 06:03:56;;;;;;;;;38.75;31.00;;;;;9.88;68.24;102706.25;4960804;28;45287;-46
2021/12/15 06:06:22;;;;;;;;;41.50;35.00;;;;;9.88;68.16;102716.75;4943544;28;45350;-45
2021/12/15 06:08:48;;;;;;;;;41.50;34.25;;;;;9.87;68.07;102712.34;4960419;28;46025;-46
2021/12/15 06:11:13;;;;;;;;;47.50;37.00;;;;;9.87;68.02;102721.13;4960762;28;45368;-45
2021/12/15 06:13:39;;;;;;;;;35.50;33.00;;;;;9.90;68.31;102726.44;4960691;28;45382;-50
2021/12/15 06:16:05;;;;;;;;;37.50;33.75;;;;;9.89;68.21;102727.28;4960880;28;45315;-48
2021/12/15 06:18:31;;;;;;;;;31.25;28.75;;;;;9.92;68.28;102729.09;4942923;28;45216;-47
2021/12/15 06:20:57;;;;;;;;;39.50;35.00;;;;;9.93;68.04;102736.13;4960605;28;45367;-50
2021/12/15 06:23:23;;;;;;;;;32.75;29.75;;;;;9.93;68.24;102731.72;4960692;28;45232;-49
2021/12/15 06:25:56;;;;;;;;;47.50;38.25;;;;;9.96;68.10;102727.41;4960406;28;45252;-50
2021/12/15 06:28:25;;;;;;;;;49.75;39.00;;;;;9.97;68.22;102737.06;4943070;28;47388;-50
2021/12/15 06:30:51;;;;;;;;;37.75;32.25;;;;;9.98;68.16;102741.47;4960543;28;45188;-45
2021/12/15 06:33:17;;;;;;;;;42.50;35.00;;;;;9.92;68.02;102735.25;4942851;28;45388;-48
2021/12/15 06:35:52;;;;;;;;;37.75;34.25;;;;;9.98;68.26;102741.47;4960531;28;45296;-49
2021/12/15 06:38:22;;;;;;;;;40.25;32.75;;;;;9.99;68.20;102743.25;4942966;28;46065;-48
2021/12/15 06:40:48;;;;;;;;;36.75;29.00;;;;;9.98;68.33;102744.97;4946544;28;45971;-45
2021/12/15 06:43:13;;;;;;;;;38.50;32.50;;;;;9.98;68.09;102750.22;4943059;28;45400;-44
2021/12/15 06:45:52;;;;;;;;;41.25;33.75;;;;;9.98;68.13;102747.59;4951756;28;45353;-46
2021/12/15 06:59:15;;;;;;;;;38.50;34.00;;;;;10.01;67.89;102762.53;4954329;28;45205;-50
2021/12/15 07:01:40;;;;;;;;;38.25;33.00;;;;;10.01;67.90;102766.06;4959845;28;45399;-46
2021/12/15 07:04:05;;;;;;;;;45.00;32.75;;;;;10.01;68.10;102763.44;4946928;28;45445;-46
2021/12/15 07:06:31;;;;;;;;;39.50;35.75;;;;;10.02;68.10;102765.19;4956483;28;45593;-49
2021/12/15 07:08:56;;;;;;;;;37.50;32.75;;;;;10.02;67.92;102762.56;4950503;28;46099;-47
2021/12/15 07:11:22;;;;;;;;;46.50;38.25;;;;;10.04;67.89;102771.38;4962980;28;45346;-49
2021/12/15 07:13:48;;;;;;;;;40.75;33.50;;;;;10.02;67.82;102770.44;4959446;28;45518;-51
2021/12/15 07:16:13;;;;;;;;;32.75;31.75;;;;;10.05;67.91;102775.78;4963222;28;45318;-50
2021/12/15 07:21:21;;;;;;;;;41.00;35.75;;;;;10.07;67.89;102775.78;4962974;28;45166;-49
2021/12/15 07:23:49;;;;;;;;;40.50;32.25;;;;;10.04;68.04;102784.50;4963149;28;45394;-51
2021/12/15 07:26:14;;;;;;;;;37.50;32.25;;;;;10.09;67.90;102792.50;4962906;28;45343;-45
2021/12/15 07:28:40;;;;;;;;;35.75;33.00;;;;;10.07;67.83;102779.31;4958011;28;47007;-49
2021/12/15 07:31:06;;;;;;;;;38.50;31.50;;;;;10.09;67.91;102789.84;4958454;28;45367;-50
2021/12/15 07:33:32;;;;;;;;;32.00;27.00;;;;;10.09;67.87;102793.34;4958270;28;45297;-51
2021/12/15 07:35:58;;;;;;;;;29.75;27.25;;;;;10.09;67.97;102788.09;4947244;28;45209;-50
2021/12/15 07:38:23;;;;;;;;;34.75;31.00;;;;;10.09;67.87;102790.72;4952228;28;45441;-49
2021/12/15 07:40:49;;;;;;;;;38.00;32.75;;;;;10.11;67.91;102795.13;4962550;28;45268;-49
2021/12/15 07:43:25;;;;;;;;;42.25;34.00;;;;;10.12;68.03;102799.53;4959692;28;45323;-49
2021/12/15 07:46:01;;;;;;;;;38.00;32.50;;;;;10.12;68.08;102802.16;4943472;28;45387;-50
2021/12/15 07:48:34;;;;;;;;;33.75;30.75;;;;;10.13;68.10;102803.94;4950105;28;45454;-49
2021/12/15 07:51:02;;;;;;;;;43.25;36.00;;;;;10.12;67.92;102805.66;4949649;28;45382;-47
2021/12/15 07:53:28;;;;;;;;;42.75;34.00;;;;;10.12;68.00;102810.06;4962681;28;45385;-48
2021/12/15 07:55:54;;;;;;;;;36.25;31.25;;;;;10.13;67.93;102809.19;4948685;28;45443;-47
2021/12/15 07:58:22;;;;;;;;;35.00;27.50;;;;;10.11;67.83;102805.66;4943065;28;46141;-47
2021/12/15 08:00:50;;;;;;;;;35.25;33.00;;;;;10.15;67.59;102812.72;4943082;28;45229;-48
2021/12/15 08:03:16;;;;;;;;;36.25;30.75;;;;;10.12;67.87;102813.56;4942916;28;45187;-48
2021/12/15 08:05:43;;;;;;;;;40.50;34.00;;;;;10.14;67.95;102817.09;4944656;28;45603;-46
2021/12/15 08:08:08;;;;;;;;;39.25;34.75;;;;;10.15;67.99;102815.34;4951235;28;45394;-49
2021/12/15 08:10:35;;;;;;;;;36.75;32.25;;;;;10.16;67.87;102811.88;4942427;28;45378;-50
2021/12/15 08:13:01;;;;;;;;;36.50;33.00;;;;;10.15;67.84;102815.34;4952101;28;45292;-49
2021/12/15 08:15:27;;;;;;;;;37.75;34.75;;;;;10.18;68.11;102815.44;4960384;28;45323;-52
2021/12/15 08:17:52;;;;;;;;;41.75;34.00;;;;;10.16;67.94;102814.50;4961816;28;46253;-48
2021/12/15 08:20:21;;;;;;;;;36.50;32.00;;;;;10.19;67.89;102819.84;4960678;28;45453;-48
2021/12/15 08:22:46;;;;;;;;;46.25;36.00;;;;;10.19;67.97;102822.47;4944897;28;45487;-49
2021/12/15 08:25:14;;;;;;;;;42.50;34.00;;;;;10.22;68.06;102819.88;4961796;28;45256;-47
2021/12/15 08:27:41;;;;;;;;;43.75;35.00;;;;;10.22;67.95;102822.53;4961953;28;45515;-49
2021/12/15 08:30:11;;;;;;;;;44.75;34.00;;;;;10.24;67.91;102824.31;4961746;28;45292;-55
2021/12/15 08:32:39;;;;;;;;;48.75;34.75;;;;;10.25;67.93;102820.84;4957281;28;45310;-48
2021/12/15 08:35:05;;;;;;;;;41.50;35.75;;;;;10.28;68.12;102820.00;4955894;28;45480;-49
2021/12/15 08:37:32;;;;;;;;;46.75;36.50;;;;;10.29;68.26;102821.78;4944394;28;45393;-45
2021/12/15 08:39:57;;;;;;;;;42.25;36.75;;;;;10.31;67.97;102820.06;4961771;28;45310;-47
2021/12/15 08:42:23;;;;;;;;;44.75;36.75;;;;;10.33;68.03;102820.13;4961911;28;45171;-45
2021/12/15 08:44:48;;;;;;;;;46.00;37.50;;;;;10.34;68.22;102820.16;4960371;28;45523;-45
2021/12/15 08:47:14;;;;;;;;;42.25;36.25;;;;;10.39;67.91;102826.41;4958287;28;45260;-50
2021/12/15 08:49:39;;;;;;;;;42.25;35.00;;;;;10.44;68.12;102836.13;4958779;28;45374;-48
2021/12/15 08:52:06;;;;;;;;;45.75;37.50;;;;;10.48;68.15;102832.72;4958432;28;45300;-49
2021/12/15 08:54:32;;;;;;;;;39.00;32.00;;;;;10.50;68.21;102825.72;4942158;28;45403;-48
2021/12/15 08:56:57;;;;;;;;;36.25;31.75;;;;;10.55;68.03;102837.22;4942084;28;45390;-49
2021/12/15 08:59:23;;;;;;;;;37.00;31.25;;;;;10.57;68.20;102840.78;4942179;28;45382;-48
2021/12/15 09:01:50;;;;;;;;;40.25;33.75;;;;;10.60;68.18;102832.06;4945618;28;45329;-50
2021/12/15 09:04:16;;;;;;;;;34.25;25.75;;;;;10.62;68.07;102841.75;4955350;28;45229;-49
2021/12/15 09:06:44;;;;;;;;;40.25;34.25;;;;;10.64;68.14;102833.88;4959992;28;45510;-47
2021/12/15 09:09:11;;;;;;;;;43.75;36.00;;;;;10.67;68.07;102823.44;4952641;28;45235;-46
2021/12/15 09:11:38;;;;;;;;;45.25;34.25;;;;;10.70;68.15;102828.72;4960743;28;45332;-48
2021/12/15 09:14:04;;;;;;;;;33.50;28.50;;;;;10.75;68.11;102842.84;4961049;28;45450;-45
2021/12/15 09:16:32;;;;;;;;;30.25;27.75;;;;;10.78;68.05;102829.78;4959217;28;47496;-52
2021/12/15 09:18:59;;;;;;;;;29.50;27.75;;;;;10.81;68.18;102842.09;4960498;28;45515;-46
2021/12/15 09:21:29;;;;;;;;;34.00;28.25;;;;;10.84;68.06;102837.78;4961238;28;45356;-47
2021/12/15 09:23:57;;;;;;;;;34.25;31.25;;;;;10.88;67.90;102849.25;4958717;28;45591;-45
2021/12/15 09:26:23;;;;;;;;;37.25;32.50;;;;;10.90;68.03;102844.88;4943258;28;46022;-46
2021/12/15 09:28:49;;;;;;;;;37.00;32.00;;;;;10.94;67.90;102845.81;4960702;28;45257;-51
2021/12/15 09:31:16;;;;;;;;;33.50;30.75;;;;;10.98;67.95;102848.53;4960002;28;45261;-49
2021/12/15 09:33:45;;;;;;;;;36.75;31.25;;;;;11.01;67.98;102856.47;4942260;28;45283;-47
2021/12/15 09:36:13;;;;;;;;;44.50;35.25;;;;;11.05;68.00;102846.91;4960623;28;46146;-47
2021/12/15 09:38:39;;;;;;;;;40.00;34.75;;;;;11.08;68.00;102854.88;4960884;28;45290;-57
2021/12/15 09:41:07;;;;;;;;;41.00;34.75;;;;;11.12;68.08;102856.69;4960626;28;45350;-52
2021/12/15 09:43:34;;;;;;;;;43.75;34.50;;;;;11.17;68.09;102848.84;4960772;28;45351;-52
2021/12/15 09:46:08;;;;;;;;;37.50;34.50;;;;;11.20;68.02;102848.91;4956012;28;45335;-52
2021/12/15 10:04:47;;;;;;;;;40.25;34.25;;;;;11.47;67.89;102850.22;4964480;28;45476;-54
2021/12/15 10:07:22;;;;;;;;;41.50;35.50;;;;;11.50;67.96;102842.38;4953434;28;45531;-52
2021/12/15 10:20:55;;;;;;;;;34.00;32.00;;;;;11.70;67.95;102853.22;4959311;28;45545;-52
2021/12/15 10:23:25;;;;;;;;;34.25;30.00;;;;;11.73;67.92;102850.59;4959423;28;45394;-51
2021/12/15 10:25:54;;;;;;;;;37.00;32.00;;;;;11.73;67.96;102836.56;4959483;28;45548;-57
2021/12/15 10:28:23;;;;;;;;;35.25;29.50;;;;;11.80;67.83;102847.19;4959222;28;46219;-56
2021/12/15 10:31:00;;;;;;;;;30.50;27.25;;;;;11.80;67.82;102847.19;4938635;28;45321;-57
2021/12/15 10:33:29;;;;;;;;;28.25;21.75;;;;;11.85;67.93;102848.16;4949082;28;45380;-57
2021/12/15 10:36:01;;;;;;;;;34.25;28.00;;;;;11.87;67.70;102849.06;4942175;28;45558;-55
2021/12/15 10:38:27;;;;;;;;;40.00;30.75;;;;;11.89;67.88;102843.81;4959152;28;46184;-54
2021/12/15 10:41:07;;;;;;;;;29.75;26.00;;;;;11.93;67.96;102850.88;4959075;28;45340;-55
2021/12/15 10:43:38;;;;;;;;;31.25;26.00;;;;;11.96;67.65;102850.97;4955583;28;45352;-54
2021/12/15 10:46:26;;;;;;;;;31.50;28.00;;;;;11.98;67.84;102848.34;4959452;28;45389;-54
2021/12/15 10:49:04;;;;;;;;;25.50;22.25;;;;;12.02;67.88;102845.78;4958608;28;45907;-54
2021/12/15 10:51:44;;;;;;;;;32.75;29.75;;;;;12.05;67.87;102846.69;4944638;28;45419;-54
2021/12/15 10:54:36;;;;;;;;;33.50;29.25;;;;;12.05;67.81;102842.31;4941893;28;45447;-53
2021/12/15 10:57:14;;;;;;;;;26.25;22.75;;;;;12.08;67.53;102830.94;4959435;28;45469;-50
2021/12/15 10:59:46;;;;;;;;;24.25;20.75;;;;;12.14;67.60;102829.25;4962152;28;45401;-53
2021/12/15 11:02:17;;;;;;;;;20.50;19.00;;;;;12.16;67.70;102832.78;4956711;28;45430;-53
2021/12/15 11:05:01;;;;;;;;;18.75;18.00;;;;;12.21;67.83;102837.22;4962406;28;45812;-49
2021/12/15 11:07:45;;;;;;;;;21.50;18.50;;;;;12.21;67.88;102839.88;4962042;28;45962;-53
2021/12/15 11:10:25;;;;;;;;;17.00;17.00;;;;;12.24;67.71;102835.53;4961280;28;47360;-53
2021/12/15 11:12:52;;;;;;;;;25.25;18.75;;;;;12.27;67.24;102832.91;4960718;28;45236;-52
2021/12/15 11:15:30;;;;;;;;;14.00;13.75;;;;;12.30;67.66;102834.69;4961735;28;45334;-51
2021/12/15 11:18:23;;;;;;;;;24.00;19.50;;;;;12.30;67.90;102829.41;4961876;28;45331;-58
2021/12/15 11:20:50;;;;;;;;;16.75;14.50;;;;;12.35;67.52;102833.00;4954153;28;45347;-55
2021/12/15 11:23:21;;;;;;;;;21.50;19.00;;;;;12.39;67.70;102833.91;4961701;28;45241;-50
2021/12/15 11:25:51;;;;;;;;;15.50;15.50;;;;;12.40;67.61;102831.31;4962239;28;45423;-52
2021/12/15 11:28:27;;;;;;;;;22.00;17.50;;;;;12.45;67.64;102828.72;4961832;28;45246;-53
2021/12/15 11:31:01;;;;;;;;;19.50;16.50;;;;;12.48;67.59;102823.50;4961713;28;46069;-52
2021/12/15 11:33:32;;;;;;;;;23.50;19.25;;;;;12.51;67.57;102828.78;4961195;28;45370;-53
2021/12/15 11:36:44;;;;;;;;;35.25;32.50;;;;;12.51;67.72;102826.16;4961928;28;45307;-50
2021/12/15 11:39:24;;;;;;;;;23.25;21.25;;;;;12.56;67.90;102835.00;4960774;28;45867;-52
2021/12/15 11:41:53;;;;;;;;;24.75;20.50;;;;;12.56;67.68;102821.81;4956578;28;47067;-53
2021/12/15 11:44:27;;;;;;;;;27.25;22.00;;;;;12.59;67.92;102828.88;4961500;28;45290;-55
2021/12/15 11:47:01;;;;;;;;;22.25;19.25;;;;;12.60;67.42;102821.00;4944328;28;45199;-47
2021/12/15 11:49:36;;;;;;;;;21.75;21.25;;;;;12.62;67.58;102815.72;4961082;28;45916;-53
2021/12/15 11:52:12;;;;;;;;;26.50;22.75;;;;;12.63;67.70;102817.50;4961385;28;46283;-51
2021/12/15 11:54:49;;;;;;;;;23.50;21.25;;;;;12.62;67.71;102821.88;4959845;28;45394;-56
2021/12/15 11:57:19;;;;;;;;;19.75;17.75;;;;;12.63;67.29;102814.88;4960561;28;45655;-53
2021/12/15 11:59:50;;;;;;;;;21.25;20.50;;;;;12.64;67.65;102813.97;4961605;28;45522;-49
2021/12/15 12:02:21;;;;;;;;;22.75;22.00;;;;;12.62;67.25;102806.06;4958813;28;45890;-51
2021/12/15 12:04:53;;;;;;;;;23.25;20.50;;;;;12.64;67.54;102812.22;4957623;28;45434;-50
2021/12/15 12:07:21;;;;;;;;;20.00;17.50;;;;;12.64;67.28;102816.59;4961438;28;45315;-52
2021/12/15 12:09:50;;;;;;;;;23.00;20.75;;;;;12.63;67.55;102817.50;4961263;28;45252;-49
2021/12/15 12:12:18;;;;;;;;;19.00;18.00;;;;;12.62;67.26;102808.69;4961213;28;46907;-52
2021/12/15 12:14:50;;;;;;;;;21.25;20.25;;;;;12.61;67.08;102806.91;4943327;28;45332;-50
2021/12/15 12:17:23;;;;;;;;;24.75;23.75;;;;;12.57;67.12;102799.84;4960801;28;45385;-53
2021/12/15 12:20:17;;;;;;;;;20.25;15.75;;;;;12.58;67.02;102806.91;4961154;28;45498;-53
2021/12/15 12:22:45;;;;;;;;;21.25;20.00;;;;;12.56;67.01;102800.72;4951994;28;47039;-50
2021/12/15 12:25:15;;;;;;;;;58.50;47.25;;;;;12.55;67.06;102803.34;4959544;28;45828;-52
2021/12/15 12:27:43;;;;;;;;;21.75;21.75;;;;;12.55;67.13;102806.84;4960242;28;45703;-50
2021/12/15 12:30:15;;;;;;;;;23.00;20.25;;;;;12.52;67.35;102807.69;4960294;28;45526;-50
2021/12/15 12:32:41;;;;;;;;;17.00;16.00;;;;;12.52;67.01;102810.34;4960216;28;46189;-50
2021/12/15 12:35:09;;;;;;;;;18.25;16.25;;;;;12.52;67.21;102798.91;4963370;28;45244;-51